ESOW/VST METAR and TAF weather

Enter ICAO airport designator
Station Type Date Time Source
ESOW METAR 2022/10/01 08:20 UTC NOAA

ESOW 010820Z AUTO 17006KT 130V200 9999 BKN078/// 12/08 Q1005


Station Type Date Time Source
ESOW Decoded METAR 2022/10/01 08:20 UTC NOAA

Vasteras / Hasslo, Sweden (ESOW) 59-35N 016-38E 31M
Oct 01, 2022 - 04:20 AM EDT / 2022.10.01 0820 UTC
Wind: from the S (170 degrees) at 7 MPH (6 KT) (direction variable):0
Visibility: greater than 7 mile(s):0
Sky conditions: mostly cloudy
Temperature: 53 F (12 C)
Dew Point: 46 F (8 C)
Relative Humidity: 76%
Pressure (altimeter): 29.68 in. Hg (1005 hPa)
ob: ESOW 010820Z AUTO 17006KT 130V200 9999 BKN078/// 12/08 Q1005
cycle: 8

Station Type Date Time Source
ESOW TAF 2021/05/19 03:36 UTC NOAA

TAF TAF ESOW 190230Z 1903/1915 27005KT CAVOK

Example: see airport list